Terminal Aerodrome Forecast
Issued by NWS

Home | Current Version | Previous Version | Text Only | Print | Product List | Glossary On
Versions: 1 2 3 4 5 6 7 8 9 10 11 12 13 14 15 16
979
FTUS45 KTFX 060525
TAFHLN
TAF
KHLN 060525Z 0606/0706 34015KT P6SM BKN050 OVC090
      TEMPO 0610/0614 5SM -SHRA BR OVC020
     FM061800 32010KT P6SM VCSH SCT015 BKN035
     FM070000 30010KT P6SM OVC080=

USA.gov is the U.S. government's official web portal to all federal, state and local government web resources and services.